Time;durP1;ratioP1;P1;durP2;ratioP2;P2;SDS_P1;SDS_P2;PMS_P1;PMS_P2;Temp;Humidity;BMP_temperature;BMP_pressure;BME280_temperature;BME280_humidity;BME280_pressure;Samples;Min_cycle;Max_cycle;Signal;HPM_P1;HPM_P2
2022/08/01 00:01:27;;;;;;;2.88;1.90;;;;;;;19.02;60.97;63964.97;5023596;28;20248;-75
2022/08/01 00:03:54;;;;;;;1.60;1.50;;;;;;;18.98;59.99;63960.78;5004873;28;20277;-76
2022/08/01 00:06:20;;;;;;;4.22;2.03;;;;;;;18.94;59.90;63959.22;5015584;28;20488;-75
2022/08/01 00:08:47;;;;;;;1.67;1.67;;;;;;;18.94;59.19;63956.63;5024313;28;20256;-76
2022/08/01 00:11:14;;;;;;;1.73;1.63;;;;;;;18.94;58.94;63959.22;5005194;28;20319;-75
2022/08/01 00:13:43;;;;;;;1.85;1.75;;;;;;;18.92;58.59;63956.59;5008197;28;20217;-77
2022/08/01 00:16:10;;;;;;;1.92;1.85;;;;;;;18.95;57.63;63959.72;5013318;28;20214;-75
2022/08/01 00:18:37;;;;;;;1.85;1.75;;;;;;;18.88;57.42;63955.00;5012614;28;20226;-76
2022/08/01 00:21:04;;;;;;;1.92;1.60;;;;;;;18.94;57.31;63956.63;5024537;28;20612;-76
2022/08/01 00:23:31;;;;;;;2.10;1.90;;;;;;;18.95;56.47;63955.06;5017168;28;20261;-74
2022/08/01 00:25:58;;;;;;;2.83;2.17;;;;;;;18.88;55.85;63952.44;5018797;28;20225;-77
2022/08/01 00:28:25;;;;;;;2.13;1.60;;;;;;;18.87;55.56;63946.75;5005624;28;20269;-75
2022/08/01 00:30:53;;;;;;;1.52;1.42;;;;;;;18.80;55.29;63949.25;5017310;28;20222;-75
2022/08/01 00:33:20;;;;;;;1.25;1.23;;;;;;;18.82;54.91;63946.16;5014566;28;20218;-75
2022/08/01 00:35:47;;;;;;;2.15;1.73;;;;;;;18.80;54.95;63946.66;5015948;28;20265;-75
2022/08/01 00:38:14;;;;;;;1.50;1.50;;;;;;;18.77;54.83;63941.47;5023392;28;20242;-76
2022/08/01 00:40:43;;;;;;;1.80;1.70;;;;;;;18.79;54.70;63946.16;5019558;28;20277;-75
2022/08/01 00:43:11;;;;;;;2.95;1.88;;;;;;;18.72;54.05;63933.16;5021890;28;20217;-76
2022/08/01 00:45:38;;;;;;;1.40;1.38;;;;;;;18.76;53.02;63939.94;5024088;28;20233;-76
2022/08/01 00:48:06;;;;;;;1.65;1.58;;;;;;;18.81;52.22;63942.56;5023454;28;20276;-75
2022/08/01 00:50:34;;;;;;;1.60;1.50;;;;;;;18.77;52.14;63941.47;5018991;28;20204;-76
2022/08/01 00:53:02;;;;;;;1.30;1.30;;;;;;;18.77;52.09;63938.91;5008747;28;20226;-75
2022/08/01 00:55:29;;;;;;;1.25;1.25;;;;;;;18.79;51.60;63945.63;5023423;28;20202;-76
2022/08/01 00:57:57;;;;;;;1.65;1.55;;;;;;;18.72;52.10;63933.16;5011339;28;20223;-76
2022/08/01 01:00:24;;;;;;;1.27;1.27;;;;;;;18.66;53.92;63930.00;5007231;28;20273;-76
2022/08/01 01:02:51;;;;;;;3.75;3.55;;;;;;;18.52;64.14;63912.84;5020605;28;20393;-76
2022/08/01 01:05:20;;;;;;;5.07;4.78;;;;;;;18.13;76.23;63879.94;5023770;28;20217;-76
2022/08/01 01:07:52;;;;;;;5.72;5.43;;;;;;;17.87;81.67;63847.69;5012004;28;20273;-76
2022/08/01 01:10:23;;;;;;;6.28;5.88;;;;;;;17.79;83.53;63841.94;5003850;28;20487;-76
2022/08/01 01:12:56;;;;;;;8.00;5.70;;;;;;;17.71;86.49;63828.44;5004069;28;20249;-75
2022/08/01 01:15:29;;;;;;;6.28;5.78;;;;;;;17.72;85.82;63832.59;5004337;28;20210;-75
2022/08/01 01:18:01;;;;;;;5.43;5.03;;;;;;;17.65;86.14;63824.78;5015718;28;20261;-76
2022/08/01 01:20:35;;;;;;;5.80;5.30;;;;;;;17.57;86.26;63816.97;5018933;28;20317;-77
2022/08/01 01:23:17;;;;;;;6.50;5.13;;;;;;;17.42;86.25;63798.22;5023395;28;20290;-76
2022/08/01 01:26:10;;;;;;;3.53;2.85;;;;;;;17.36;74.88;63795.06;5017866;28;20199;-76
2022/08/01 01:28:47;;;;;;;3.53;2.20;;;;;;;17.33;69.34;63795.03;5011157;28;20230;-76
2022/08/01 01:31:18;;;;;;;2.00;1.85;;;;;;;17.44;64.21;63805.97;5003720;28;20248;-75
2022/08/01 01:33:45;;;;;;;1.45;1.45;;;;;;;17.56;59.70;63818.50;5009824;28;20221;-75
2022/08/01 01:36:15;;;;;;;1.92;1.70;;;;;;;17.64;57.88;63824.25;5017169;28;20202;-75
2022/08/01 01:38:45;;;;;;;1.50;1.40;;;;;;;17.74;56.18;63826.41;5003509;28;20546;-76
2022/08/01 01:41:13;;;;;;;1.83;1.40;;;;;;;17.92;53.61;63850.84;5003331;28;20837;-76
2022/08/01 01:43:41;;;;;;;1.70;1.67;;;;;;;18.01;52.45;63864.84;5016945;28;20230;-76
2022/08/01 01:46:10;;;;;;;2.85;1.75;;;;;;;18.08;51.52;63875.25;5005949;28;20206;-76
2022/08/01 01:48:40;;;;;;;1.75;1.65;;;;;;;18.16;50.78;63875.84;5003157;28;20234;-75
2022/08/01 01:51:08;;;;;;;1.90;1.42;;;;;;;18.27;50.40;63892.44;5010264;28;20213;-75
2022/08/01 01:53:36;;;;;;;2.58;1.45;;;;;;;18.29;50.59;63891.94;5011838;28;20219;-77
2022/08/01 01:56:04;;;;;;;1.30;1.30;;;;;;;18.29;49.90;63886.78;5025962;28;20206;-76
2022/08/01 01:58:34;;;;;;;1.55;1.55;;;;;;;18.22;50.83;63886.72;5025301;28;20222;-75
2022/08/01 02:01:03;;;;;;;1.70;1.60;;;;;;;18.26;50.49;63890.88;5026759;28;20232;-77
2022/08/01 02:03:31;;;;;;;2.03;1.83;;;;;;;18.28;50.41;63892.97;5015466;28;20227;-76
2022/08/01 02:06:02;;;;;;;1.83;1.73;;;;;;;18.18;49.91;63877.94;5022076;28;20505;-76
2022/08/01 02:08:31;;;;;;;2.75;1.67;;;;;;;18.18;49.25;63879.97;5005662;28;20461;-77
2022/08/01 02:13:45;;;;;;;3.20;2.03;;;;;;;18.36;48.01;63896.16;5022759;28;20249;-74
2022/08/01 02:16:13;;;;;;;2.03;1.65;;;;;;;18.42;47.33;63907.59;5020634;28;20232;-76
2022/08/01 02:18:41;;;;;;;1.70;1.63;;;;;;;18.51;47.33;63914.38;5008512;28;20261;-74
2022/08/01 02:21:13;;;;;;;1.85;1.75;;;;;;;18.54;46.75;63914.94;5008681;28;20226;-76
2022/08/01 02:23:41;;;;;;;2.03;1.92;;;;;;;18.54;46.33;63911.81;5009271;28;20218;-76
2022/08/01 02:26:12;;;;;;;2.22;1.40;;;;;;;18.69;45.87;63933.13;5014759;28;20202;-76
2022/08/01 02:28:44;;;;;;;1.75;1.65;;;;;;;18.63;46.24;63928.94;5005078;28;20274;-75
2022/08/01 02:31:18;;;;;;;1.45;1.45;;;;;;;18.58;47.04;63919.09;5008381;28;20218;-75
2022/08/01 02:33:55;;;;;;;1.60;1.50;;;;;;;18.60;47.25;63923.25;5008798;28;20585;-75
2022/08/01 02:36:27;;;;;;;1.77;1.67;;;;;;;18.62;47.44;63925.34;5023378;28;20245;-76
2022/08/01 02:38:57;;;;;;;3.38;1.67;;;;;;;18.59;47.52;63919.59;5023131;28;20202;-76
2022/08/01 02:41:27;;;;;;;1.60;1.60;;;;;;;18.60;48.08;63923.78;5012545;28;20242;-75
2022/08/01 02:43:58;;;;;;;1.75;1.65;;;;;;;18.54;48.29;63920.09;5013645;28;20213;-75
2022/08/01 02:46:29;;;;;;;2.03;1.83;;;;;;;18.53;48.03;63916.47;5024118;28;20379;-75
2022/08/01 02:48:59;;;;;;;2.38;1.80;;;;;;;18.65;47.95;63925.88;5017506;28;20215;-76
2022/08/01 02:51:29;;;;;;;4.30;2.10;;;;;;;18.65;48.35;63925.88;5020116;28;20206;-76
2022/08/01 02:53:57;;;;;;;1.80;1.77;;;;;;;18.62;47.64;63928.41;5024081;28;20216;-75
2022/08/01 02:56:34;;;;;;;1.40;1.35;;;;;;;18.73;47.94;63934.19;5018897;28;20285;-76
2022/08/01 02:59:03;;;;;;;1.50;1.40;;;;;;;18.77;47.48;63943.53;5008469;28;20207;-77
2022/08/01 03:01:31;;;;;;;1.63;1.55;;;;;;;18.75;47.91;63941.97;5014545;28;20234;-75
2022/08/01 03:03:58;;;;;;;2.00;1.90;;;;;;;18.78;48.01;63939.41;4978351;28;1346860;-76
2022/08/01 03:06:28;;;;;;;1.80;1.70;;;;;;;18.74;48.07;63940.41;5023164;28;20198;-77
2022/08/01 03:08:56;;;;;;;3.22;1.67;;;;;;;18.70;48.42;63936.75;5006092;28;20217;-76
2022/08/01 03:11:26;;;;;;;1.65;1.55;;;;;;;18.69;48.71;63930.56;5011199;28;20194;-76
2022/08/01 03:13:56;;;;;;;1.75;1.75;;;;;;;18.66;49.13;63927.44;5025408;28;20293;-76
2022/08/01 03:16:26;;;;;;;1.75;1.65;;;;;;;18.69;48.95;63932.63;5021965;28;20196;-76
2022/08/01 03:18:56;;;;;;;1.80;1.70;;;;;;;18.65;49.59;63931.56;5022407;28;20222;-76
2022/08/01 03:21:24;;;;;;;3.53;1.70;;;;;;;18.61;49.66;63927.38;5016117;28;20237;-76
2022/08/01 03:23:56;;;;;;;1.80;1.80;;;;;;;18.56;49.71;63919.59;5005560;28;20281;-75
2022/08/01 03:26:27;;;;;;;2.00;1.90;;;;;;;18.60;53.06;63920.66;5020498;28;20425;-75
2022/08/01 03:28:57;;;;;;;3.88;2.15;;;;;;;18.47;55.70;63909.69;5005539;28;20257;-76
2022/08/01 03:31:26;;;;;;;2.30;2.20;;;;;;;18.37;56.82;63902.88;5022027;28;20210;-76
2022/08/01 03:33:53;;;;;;;2.30;2.20;;;;;;;18.30;58.19;63895.59;5021820;28;20523;-76
2022/08/01 03:36:26;;;;;;;2.17;2.08;;;;;;;18.25;59.33;63884.69;5014082;28;20238;-75
2022/08/01 03:38:58;;;;;;;6.22;1.95;;;;;;;18.05;60.90;63864.38;5005140;28;20277;-77
2022/08/01 03:41:28;;;;;;;2.05;1.95;;;;;;;18.03;57.29;63864.88;5005250;28;20230;-77
2022/08/01 03:43:59;;;;;;;2.50;2.38;;;;;;;18.03;57.10;63864.88;5014659;28;20248;-75
2022/08/01 03:46:31;;;;;;;2.53;2.35;;;;;;;18.06;56.25;63864.91;5024968;28;20206;-75
2022/08/01 03:49:04;;;;;;;2.80;2.42;;;;;;;18.02;58.14;63866.41;5013031;28;20236;-75
2022/08/01 03:51:32;;;;;;;1.55;1.52;;;;;;;18.03;59.30;63866.94;5005304;28;20227;-76
2022/08/01 03:54:02;;;;;;;2.22;2.13;;;;;;;18.02;59.49;63861.25;5010176;28;20406;-76
2022/08/01 03:56:31;;;;;;;2.85;2.35;;;;;;;18.04;58.25;63857.66;5021505;28;20207;-76
2022/08/01 03:59:00;;;;;;;2.38;2.17;;;;;;;18.15;58.15;63874.78;5017805;28;20207;-77
2022/08/01 04:01:29;;;;;;;2.35;2.25;;;;;;;18.16;58.31;63880.47;5010803;28;20302;-76
2022/08/01 04:03:56;;;;;;;2.47;2.38;;;;;;;18.28;56.74;63885.75;5009435;28;20210;-74
2022/08/01 04:06:24;;;;;;;3.13;2.92;;;;;;;18.40;54.61;63903.44;5023046;28;20205;-74
2022/08/01 04:08:56;;;;;;;2.50;2.30;;;;;;;18.58;53.11;63926.31;5009613;28;20229;-75
2022/08/01 04:14:10;;;;;;;3.20;2.90;;;;;;;18.62;56.85;63931.00;5023497;28;20260;-75
2022/08/01 04:16:39;;;;;;;4.13;2.40;;;;;;;18.64;58.03;63935.16;5021377;28;20206;-75
2022/08/01 04:19:07;;;;;;;2.33;2.20;;;;;;;18.69;57.78;63927.97;5020778;28;20252;-76
2022/08/01 04:21:36;;;;;;;3.03;2.83;;;;;;;18.76;55.94;63943.00;5016248;28;20246;-75
2022/08/01 04:24:08;;;;;;;2.30;2.20;;;;;;;18.80;55.45;63944.59;5004344;28;20211;-75
2022/08/01 04:26:38;;;;;;;2.38;2.17;;;;;;;18.94;53.82;63958.69;5013629;28;20197;-76
2022/08/01 04:29:07;;;;;;;4.75;2.45;;;;;;;19.04;54.94;63963.94;5020171;28;20232;-76
2022/08/01 04:31:37;;;;;;;2.20;2.10;;;;;;;19.05;54.55;63972.72;5022679;28;20210;-76
2022/08/01 04:34:06;;;;;;;2.13;2.03;;;;;;;19.17;54.59;63983.16;5021845;28;20206;-75
2022/08/01 04:36:36;;;;;;;4.32;2.72;;;;;;;19.15;55.81;63983.16;5023219;28;20202;-75
2022/08/01 04:39:05;;;;;;;3.67;2.72;;;;;;;19.20;58.05;63986.31;5020188;28;20247;-76
2022/08/01 04:41:33;;;;;;;3.33;3.03;;;;;;;19.21;57.88;63982.19;5019260;28;20225;-75
2022/08/01 04:44:02;;;;;;;3.28;3.00;;;;;;;19.32;58.66;63998.84;5003638;28;20206;-77
2022/08/01 04:46:30;;;;;;;3.38;3.00;;;;;;;19.37;59.66;64004.06;5004993;28;20223;-77
2022/08/01 04:48:57;;;;;;;3.40;2.85;;;;;;;19.29;61.73;63995.69;5023051;28;20237;-76
2022/08/01 04:51:24;;;;;;;2.85;2.58;;;;;;;19.45;60.52;64014.97;5013123;28;20504;-75
2022/08/01 04:53:51;;;;;;;3.65;3.35;;;;;;;19.39;61.11;64003.03;5009341;28;20246;-76
2022/08/01 04:56:20;;;;;;;2.75;2.65;;;;;;;19.21;60.54;63986.81;5019618;28;20397;-76
2022/08/01 04:58:47;;;;;;;3.92;2.92;;;;;;;19.15;59.60;63980.56;5015359;28;20226;-76
2022/08/01 05:01:16;;;;;;;3.85;3.05;;;;;;;18.98;58.92;63960.78;5023233;28;20492;-74
2022/08/01 05:03:43;;;;;;;5.50;3.22;;;;;;;19.11;59.00;63974.34;5011795;28;20244;-74
2022/08/01 05:06:10;;;;;;;3.28;3.00;;;;;;;19.15;61.82;63978.53;5012578;28;20382;-75
2022/08/01 05:08:37;;;;;;;3.38;3.15;;;;;;;19.19;57.65;63985.25;5003703;28;20222;-76
2022/08/01 05:11:04;;;;;;;2.60;2.50;;;;;;;19.28;58.13;63994.13;5003293;28;20491;-75
2022/08/01 05:13:31;;;;;;;2.92;2.72;;;;;;;19.34;56.56;64000.94;5011942;28;20225;-75
2022/08/01 05:15:58;;;;;;;6.32;2.60;;;;;;;19.50;57.05;64020.19;5020803;28;20248;-75
2022/08/01 05:18:27;;;;;;;2.53;2.42;;;;;;;19.68;54.47;64030.69;5023095;28;20308;-76
2022/08/01 05:20:54;;;;;;;3.05;2.72;;;;;;;19.87;53.71;64052.56;5013110;28;20240;-76
2022/08/01 05:23:21;;;;;;;2.05;1.95;;;;;;;20.14;52.02;64083.34;5020783;28;20293;-77
2022/08/01 05:25:49;;;;;;;3.10;2.10;;;;;;;20.31;49.77;64101.09;5017884;28;20404;-75
2022/08/01 05:28:16;;;;;;;2.20;2.10;;;;;;;20.45;48.10;64113.09;5003440;28;20273;-75
2022/08/01 05:30:43;;;;;;;2.47;2.17;;;;;;;20.44;47.30;64112.06;5010473;28;20217;-75
2022/08/01 05:33:10;;;;;;;3.88;2.30;;;;;;;20.67;47.97;64136.59;5018443;28;20425;-76
2022/08/01 05:35:38;;;;;;;2.25;2.03;;;;;;;20.79;46.84;64148.09;5021925;28;20511;-75
2022/08/01 05:38:05;;;;;;;8.27;2.58;;;;;;;20.86;46.56;64161.09;5023644;28;20285;-76
2022/08/01 05:40:32;;;;;;;2.20;2.03;;;;;;;20.96;46.37;64168.94;5021461;28;20206;-76
2022/08/01 05:42:59;;;;;;;2.10;1.90;;;;;;;20.83;45.81;64152.28;5018245;28;20229;-75
2022/08/01 05:45:25;;;;;;;2.15;2.05;;;;;;;20.95;45.91;64164.78;5022663;28;20445;-77
2022/08/01 05:47:52;;;;;;;2.03;1.90;;;;;;;20.91;45.90;64166.31;5021289;28;20293;-76
2022/08/01 05:50:19;;;;;;;2.33;2.05;;;;;;;20.90;46.43;64167.34;5019430;28;20229;-75
2022/08/01 05:52:48;;;;;;;2.40;2.17;;;;;;;20.83;46.79;64154.84;5012137;28;20394;-74
2022/08/01 05:55:15;;;;;;;2.10;2.00;;;;;;;20.95;46.95;64167.91;5017743;28;20220;-76
2022/08/01 05:57:42;;;;;;;2.17;2.08;;;;;;;21.07;45.96;64182.53;5022594;28;20214;-76
2022/08/01 06:00:12;;;;;;;2.67;2.08;;;;;;;21.06;46.87;64178.88;5014016;28;20294;-76
2022/08/01 06:02:42;;;;;;;2.28;2.17;;;;;;;20.92;47.10;64161.66;5021532;28;20234;-76
2022/08/01 06:05:10;;;;;;;2.72;2.40;;;;;;;20.99;46.73;64171.56;5019553;28;20221;-76
2022/08/01 06:07:38;;;;;;;2.35;2.25;;;;;;;21.05;46.66;64177.84;5014673;28;20222;-76
2022/08/01 06:10:08;;;;;;;2.60;2.40;;;;;;;21.11;46.37;64184.63;5022309;28;20269;-76
2022/08/01 06:12:35;;;;;;;2.08;1.70;;;;;;;21.21;46.22;64194.56;5014875;28;20264;-77
2022/08/01 06:15:03;;;;;;;2.22;2.10;;;;;;;20.91;47.12;64158.03;5015333;28;20202;-74
2022/08/01 06:17:30;;;;;;;2.95;2.20;;;;;;;20.89;47.98;64161.63;5003865;28;20403;-74
2022/08/01 06:19:56;;;;;;;2.38;2.28;;;;;;;20.93;47.34;64162.72;5012983;28;20202;-76
2022/08/01 06:22:23;;;;;;;3.03;2.17;;;;;;;21.08;47.80;64175.78;5002310;28;20238;-74
2022/08/01 06:24:50;;;;;;;2.38;2.28;;;;;;;21.21;46.94;64197.16;5008891;28;20198;-79
2022/08/01 06:27:19;;;;;;;4.40;2.22;;;;;;;21.21;46.77;64195.06;5011958;28;20219;-76
2022/08/01 06:29:46;;;;;;;2.50;2.40;;;;;;;21.10;47.25;64183.59;5003814;28;20438;-76
2022/08/01 06:32:13;;;;;;;3.80;2.85;;;;;;;21.16;47.37;64189.31;5003794;28;20270;-76
2022/08/01 06:34:39;;;;;;;2.40;2.30;;;;;;;21.25;47.38;64198.72;5015014;28;20217;-75
2022/08/01 06:37:06;;;;;;;4.35;2.50;;;;;;;21.31;46.57;64202.91;5013199;28;20222;-76
2022/08/01 06:39:33;;;;;;;2.58;2.38;;;;;;;21.36;47.34;64212.81;5006402;28;20202;-75
2022/08/01 06:42:00;;;;;;;2.47;2.38;;;;;;;21.34;46.79;64205.53;5007433;28;20235;-76
2022/08/01 06:44:28;;;;;;;3.78;2.30;;;;;;;21.37;47.26;64211.78;5025967;28;20202;-75
2022/08/01 06:46:55;;;;;;;2.60;2.00;;;;;;;21.29;47.38;64202.91;5026038;28;20272;-75
2022/08/01 06:49:22;;;;;;;2.33;2.10;;;;;;;21.29;46.78;64200.84;5025858;28;20216;-76
2022/08/01 06:51:49;;;;;;;2.58;2.38;;;;;;;21.46;47.54;64220.66;5019923;28;20226;-73
2022/08/01 06:54:16;;;;;;;2.35;2.25;;;;;;;21.49;47.73;64224.31;5010181;28;20456;-75
2022/08/01 06:56:43;;;;;;;2.00;1.92;;;;;;;21.54;47.16;64223.84;5022797;28;20201;-76
2022/08/01 06:59:10;;;;;;;2.75;2.20;;;;;;;21.59;47.53;64231.66;5008414;28;20199;-76
2022/08/01 07:01:38;;;;;;;2.30;2.10;;;;;;;21.60;47.49;64233.22;5020917;28;20291;-75
2022/08/01 07:04:05;;;;;;;2.80;2.60;;;;;;;21.73;47.43;64248.88;5018581;28;20226;-74
2022/08/01 07:06:32;;;;;;;2.58;2.38;;;;;;;21.68;46.93;64246.75;5023762;28;20194;-76
2022/08/01 07:09:00;;;;;;;2.58;2.05;;;;;;;21.59;47.97;64234.22;5019344;28;20254;-75
2022/08/01 07:11:27;;;;;;;2.78;2.30;;;;;;;21.71;47.72;64249.91;5022081;28;20260;-74
2022/08/01 07:13:54;;;;;;;2.00;1.90;;;;;;;21.71;47.95;64249.38;5016840;28;20202;-75
2022/08/01 07:16:21;;;;;;;3.15;2.85;;;;;;;21.88;47.63;64267.16;5022760;28;20236;-76
2022/08/01 07:18:50;;;;;;;2.17;2.08;;;;;;;21.96;47.34;64272.94;5021942;28;21334;-76
2022/08/01 07:21:16;;;;;;;2.92;2.65;;;;;;;21.86;48.78;64262.47;5011856;28;20206;-74
2022/08/01 07:23:43;;;;;;;2.50;2.10;;;;;;;21.72;47.78;64248.34;5022733;28;20218;-75
2022/08/01 07:26:10;;;;;;;3.30;2.45;;;;;;;21.84;47.70;64259.84;5015672;28;20203;-75
2022/08/01 07:28:37;;;;;;;2.58;2.45;;;;;;;21.89;47.33;64263.00;5012303;28;20451;-78
2022/08/01 07:31:04;;;;;;;2.42;2.33;;;;;;;21.92;47.66;64268.22;5018785;28;20206;-77
2022/08/01 07:33:31;;;;;;;2.38;2.28;;;;;;;21.96;47.58;64267.75;5022616;28;20236;-75
2022/08/01 07:35:59;;;;;;;2.40;2.30;;;;;;;22.08;48.16;64284.94;5017450;28;20198;-75
2022/08/01 07:38:26;;;;;;;2.50;2.40;;;;;;;21.97;48.07;64270.84;5021517;28;20230;-75
2022/08/01 07:40:54;;;;;;;5.07;2.42;;;;;;;22.19;47.61;64299.03;5019746;28;20218;-76
2022/08/01 07:43:21;;;;;;;2.95;2.17;;;;;;;22.17;48.60;64294.34;5019302;28;20237;-77
2022/08/01 07:45:48;;;;;;;3.42;2.15;;;;;;;22.29;46.68;64312.09;5012314;28;20202;-75
2022/08/01 07:48:15;;;;;;;4.40;2.38;;;;;;;22.26;47.08;64299.06;5020417;28;20239;-76
2022/08/01 07:50:42;;;;;;;3.00;2.70;;;;;;;22.29;46.74;64304.28;5010750;28;20675;-75
2022/08/01 07:53:11;;;;;;;2.55;2.28;;;;;;;22.37;46.05;64310.06;5009080;28;20230;-75
2022/08/01 07:55:38;;;;;;;2.50;2.40;;;;;;;22.57;46.31;64336.69;5008668;28;20221;-74
2022/08/01 07:58:04;;;;;;;3.00;2.25;;;;;;;22.07;45.71;64278.72;5020703;28;20222;-75
2022/08/01 08:00:31;;;;;;;2.40;2.30;;;;;;;22.24;45.64;64299.59;5017707;28;20207;-75
2022/08/01 08:02:59;;;;;;;2.40;2.20;;;;;;;22.02;47.04;64278.69;5018946;28;20234;-75
2022/08/01 08:05:26;;;;;;;2.55;2.35;;;;;;;22.14;48.40;64293.81;5009860;28;20222;-75
2022/08/01 08:07:53;;;;;;;4.45;2.47;;;;;;;22.38;46.82;64316.81;5016234;28;20271;-76
2022/08/01 08:10:21;;;;;;;2.63;2.42;;;;;;;22.60;46.95;64334.66;5015613;28;20508;-75
2022/08/01 08:12:48;;;;;;;2.35;2.25;;;;;;;22.33;46.96;64313.66;5015644;28;20383;-75
2022/08/01 08:15:15;;;;;;;1.95;1.85;;;;;;;22.54;46.61;64327.84;5017388;28;20209;-77
2022/08/01 08:17:42;;;;;;;3.80;2.47;;;;;;;22.53;46.04;64329.91;5013448;28;20368;-77
2022/08/01 08:20:10;;;;;;;2.50;2.40;;;;;;;22.31;45.50;64306.91;5004892;28;20281;-77
2022/08/01 08:22:37;;;;;;;2.60;2.40;;;;;;;22.45;45.88;64321.53;5019058;28;20238;-74
2022/08/01 08:25:05;;;;;;;2.30;2.20;;;;;;;22.40;45.83;64321.00;5016304;28;20490;-73
2022/08/01 08:27:34;;;;;;;4.28;2.53;;;;;;;22.46;47.05;64325.19;5020725;28;20233;-76
2022/08/01 08:30:00;;;;;;;2.42;2.30;;;;;;;22.48;46.78;64326.75;5018161;28;20202;-73
2022/08/01 08:32:27;;;;;;;2.50;2.40;;;;;;;22.55;46.11;64337.22;5020579;28;20223;-75
2022/08/01 08:34:54;;;;;;;2.30;2.20;;;;;;;22.66;45.14;64343.50;5020456;28;20221;-75
2022/08/01 08:37:22;;;;;;;2.17;2.08;;;;;;;22.74;44.80;64353.97;5021745;28;20281;-76
2022/08/01 08:39:49;;;;;;;1.80;1.75;;;;;;;22.59;44.68;64340.88;5022027;28;20397;-75
2022/08/01 08:42:15;;;;;;;2.70;2.17;;;;;;;22.76;44.09;64356.56;5007253;28;20242;-76
2022/08/01 08:44:44;;;;;;;2.25;2.15;;;;;;;22.71;45.46;64350.81;5008131;28;20361;-75
2022/08/01 08:47:13;;;;;;;4.22;2.15;;;;;;;22.61;46.49;64335.16;5015690;28;20222;-75
2022/08/01 08:49:42;;;;;;;3.95;2.28;;;;;;;22.54;46.13;64330.44;5011348;28;20206;-75
2022/08/01 08:52:11;;;;;;;2.35;2.25;;;;;;;22.29;46.93;64306.88;5012581;28;20258;-74
2022/08/01 08:54:39;;;;;;;2.20;2.10;;;;;;;22.51;45.42;64325.22;5014749;28;20209;-76
2022/08/01 08:57:06;;;;;;;2.85;2.40;;;;;;;22.48;46.33;64327.28;5016542;28;20225;-74
2022/08/01 08:59:34;;;;;;;3.33;2.42;;;;;;;22.46;45.16;64322.59;5020414;28;20202;-74
2022/08/01 09:02:04;;;;;;;3.40;2.63;;;;;;;22.45;45.38;64328.81;5012951;28;20234;-75
2022/08/01 09:04:32;;;;;;;2.88;2.53;;;;;;;22.57;45.48;64339.28;5016526;28;20210;-75
2022/08/01 09:06:58;;;;;;;2.60;2.50;;;;;;;22.82;44.46;64360.25;5016804;28;20248;-76
2022/08/01 09:09:25;;;;;;;3.58;2.53;;;;;;;22.57;44.37;64336.19;5018471;28;20200;-75
2022/08/01 09:11:55;;;;;;;2.00;1.90;;;;;;;22.64;44.10;64340.91;5022959;28;20242;-77
2022/08/01 09:14:23;;;;;;;2.13;2.03;;;;;;;22.79;43.99;64356.59;5011379;28;20432;-76
2022/08/01 09:17:03;;;;;;;2.55;2.45;;;;;;;22.96;44.27;64373.84;5020474;28;20222;-75
2022/08/01 09:19:37;;;;;;;2.30;2.20;;;;;;;23.35;43.51;64417.78;5014161;28;20230;-76
2022/08/01 09:22:06;;;;;;;3.28;2.63;;;;;;;23.01;42.74;64379.59;5018792;28;20250;-73
2022/08/01 09:24:35;;;;;;;1.85;1.85;;;;;;;22.70;44.37;64352.38;5005249;28;20213;-75
2022/08/01 09:27:16;;;;;;;2.60;2.50;;;;;;;23.08;44.79;64389.50;5018506;28;20232;-74
2022/08/01 09:29:44;;;;;;;2.70;2.50;;;;;;;23.26;43.17;64405.22;5004931;28;20294;-74
2022/08/01 09:32:12;;;;;;;2.22;2.13;;;;;;;23.23;43.70;64407.28;5008590;28;20217;-76
2022/08/01 09:34:39;;;;;;;2.45;2.25;;;;;;;23.06;44.54;64384.81;5017920;28;20405;-74
2022/08/01 09:37:07;;;;;;;2.20;2.10;;;;;;;23.14;45.24;64395.25;5020012;28;20236;-76
2022/08/01 09:39:37;;;;;;;3.13;2.85;;;;;;;23.35;44.37;64409.97;5017085;28;20210;-76
2022/08/01 09:42:21;;;;;;;7.20;2.53;;;;;;;23.15;44.49;64396.31;5009352;28;20249;-75
2022/08/01 09:44:48;;;;;;;1.98;1.95;;;;;;;23.15;44.32;64396.84;5018746;28;20566;-74
2022/08/01 09:47:17;;;;;;;3.10;2.88;;;;;;;23.24;44.40;64408.31;5019119;28;20230;-74
2022/08/01 09:49:45;;;;;;;2.47;2.30;;;;;;;23.19;44.29;64403.09;5024915;28;20228;-75
2022/08/01 09:52:14;;;;;;;2.30;2.20;;;;;;;23.36;44.21;64415.69;5023631;28;20280;-74
2022/08/01 09:54:42;;;;;;;3.78;2.35;;;;;;;23.25;45.00;64409.34;5023527;28;20198;-74
2022/08/01 09:57:13;;;;;;;3.42;3.05;;;;;;;23.17;45.19;64403.59;5017577;28;20261;-74
2022/08/01 09:59:43;;;;;;;4.13;2.50;;;;;;;23.26;45.50;64410.94;5015758;28;20202;-76
2022/08/01 10:02:13;;;;;;;2.67;2.58;;;;;;;23.26;46.10;64408.34;5021430;28;20264;-75
2022/08/01 10:04:49;;;;;;;3.30;2.47;;;;;;;23.32;46.09;64411.50;5020913;28;20202;-76
2022/08/01 10:07:17;;;;;;;3.63;2.55;;;;;;;23.58;45.45;64441.84;5011781;28;20301;-77
2022/08/01 10:09:44;;;;;;;5.00;2.53;;;;;;;23.83;44.99;64470.09;5005709;28;20230;-75
2022/08/01 10:12:14;;;;;;;2.50;2.30;;;;;;;23.82;44.14;64463.81;5024696;28;20380;-76
2022/08/01 10:14:41;;;;;;;5.95;3.17;;;;;;;24.02;43.65;64492.06;5026380;28;20237;-75
2022/08/01 10:17:12;;;;;;;2.35;2.25;;;;;;;24.18;43.64;64506.22;5028151;28;20349;-76
2022/08/01 10:19:41;;;;;;;2.53;2.42;;;;;;;24.30;43.52;64516.69;5028243;28;20206;-76
2022/08/01 10:22:13;;;;;;;2.40;2.30;;;;;;;24.54;42.62;64544.41;5011894;28;20299;-76
2022/08/01 10:24:41;;;;;;;3.72;2.47;;;;;;;23.87;43.19;64474.78;5013668;28;20515;-74
2022/08/01 10:27:10;;;;;;;2.83;2.72;;;;;;;23.68;44.31;64449.16;5020031;28;20222;-74
2022/08/01 10:29:42;;;;;;;5.43;2.53;;;;;;;23.76;42.83;64462.75;5024634;28;20224;-74
2022/08/01 10:32:10;;;;;;;2.95;2.70;;;;;;;23.64;43.89;64447.59;5008266;28;20230;-75
2022/08/01 10:34:38;;;;;;;2.50;2.40;;;;;;;24.05;43.51;64487.91;5024814;28;20202;-76
2022/08/01 10:37:06;;;;;;;2.90;2.60;;;;;;;24.07;42.16;64492.09;5018913;28;20227;-77
2022/08/01 10:39:35;;;;;;;2.40;2.30;;;;;;;24.29;42.18;64515.63;5022894;28;20216;-75
2022/08/01 10:42:03;;;;;;;2.30;2.20;;;;;;;24.65;41.60;64550.72;5027686;28;20272;-76
2022/08/01 10:44:32;;;;;;;2.25;1.83;;;;;;;24.25;42.58;64510.91;5025882;28;20208;-74
2022/08/01 10:47:05;;;;;;;2.45;2.28;;;;;;;24.55;41.54;64542.88;5016430;28;20223;-76
2022/08/01 10:49:37;;;;;;;3.55;2.08;;;;;;;24.70;41.02;64560.66;5027228;28;20521;-74
2022/08/01 10:52:05;;;;;;;2.20;2.10;;;;;;;24.65;40.51;64555.94;5024238;28;20293;-73
2022/08/01 10:54:41;;;;;;;2.45;2.30;;;;;;;24.62;41.05;64549.66;5019009;28;20318;-76
2022/08/01 10:57:08;;;;;;;2.25;2.15;;;;;;;24.10;41.43;64495.75;5019970;28;20565;-76
2022/08/01 10:59:39;;;;;;;2.30;2.20;;;;;;;24.44;41.56;64533.41;5014820;28;20198;-76
2022/08/01 11:02:07;;;;;;;2.13;2.05;;;;;;;24.27;42.26;64516.16;5021710;28;20281;-78
2022/08/01 11:04:45;;;;;;;1.65;1.63;;;;;;;24.38;41.80;64524.53;5024650;28;20249;-75
2022/08/01 11:07:18;;;;;;;2.03;1.92;;;;;;;24.53;41.34;64540.78;5025787;28;20301;-75
2022/08/01 11:09:48;;;;;;;2.30;2.10;;;;;;;24.75;41.92;64569.03;5017905;28;20198;-75
2022/08/01 11:12:16;;;;;;;2.22;2.13;;;;;;;24.57;42.14;64541.81;5013812;28;20222;-75
2022/08/01 11:15:24;;;;;;;2.40;2.30;;;;;;;24.38;42.82;64524.53;5006362;28;20246;-74
2022/08/01 11:17:52;;;;;;;2.53;2.33;;;;;;;24.77;41.40;64568.00;5014473;28;20272;-76
2022/08/01 11:20:20;;;;;;;2.45;2.35;;;;;;;24.68;41.16;64556.47;5018933;28;20257;-77
2022/08/01 11:23:23;;;;;;;2.03;1.90;;;;;;;24.46;41.35;64530.31;5024533;28;20280;-75
2022/08/01 11:26:17;;;;;;;1.70;1.70;;;;;;;24.57;41.98;64542.34;5009135;28;20265;-76
2022/08/01 11:28:46;;;;;;;4.88;2.20;;;;;;;24.82;41.91;64568.53;5016735;28;20413;-75
2022/08/01 11:31:30;;;;;;;2.85;2.42;;;;;;;24.89;40.75;64577.94;5021543;28;20230;-74
2022/08/01 11:33:58;;;;;;;2.90;2.13;;;;;;;24.80;40.76;64565.91;5015939;28;20610;-76
2022/08/01 11:36:25;;;;;;;2.20;2.10;;;;;;;24.31;41.82;64517.22;5012240;28;20198;-73
2022/08/01 11:39:14;;;;;;;2.05;1.95;;;;;;;23.88;43.29;64472.72;5020014;28;20218;-74
2022/08/01 11:41:44;;;;;;;2.72;2.53;;;;;;;24.29;43.56;64515.63;5012842;28;20202;-76
2022/08/01 11:44:13;;;;;;;2.60;2.40;;;;;;;24.39;43.21;64526.09;5021683;28;20230;-74
2022/08/01 11:46:55;;;;;;;2.70;2.15;;;;;;;24.55;42.41;64539.72;5016682;28;20236;-76
2022/08/01 11:49:47;;;;;;;8.50;2.60;;;;;;;24.26;42.14;64506.78;5011458;28;20213;-75